createdAt,value
2019-02-21T00:00:58.732Z,10.43
2019-02-21T00:03:27.243Z,11.03
2019-02-21T00:05:55.378Z,11.70
2019-02-21T00:08:23.961Z,12.07
2019-02-21T00:10:52.494Z,11.38
2019-02-21T00:13:21.059Z,11.80
2019-02-21T00:15:49.935Z,12.00
2019-02-21T00:18:18.065Z,12.18
2019-02-21T00:20:46.608Z,12.28
2019-02-21T00:23:14.763Z,12.00
2019-02-21T00:25:42.890Z,12.47
2019-02-21T00:28:11.888Z,12.65
2019-02-21T00:30:39.977Z,13.08
2019-02-21T00:33:08.402Z,12.70
2019-02-21T00:35:36.620Z,13.30
2019-02-21T00:38:05.243Z,13.05
2019-02-21T00:40:33.383Z,13.28
2019-02-21T00:43:02.268Z,13.45
2019-02-21T00:45:31.365Z,14.23
2019-02-21T00:47:59.659Z,14.00
2019-02-21T00:50:28.751Z,13.85
2019-02-21T00:52:57.203Z,14.30
2019-02-21T00:55:27.814Z,13.70
2019-02-21T00:57:55.277Z,14.10
2019-02-21T01:00:23.751Z,14.10
2019-02-21T01:02:52.951Z,13.80
2019-02-21T01:05:21.809Z,15.30
2019-02-21T01:07:50.249Z,14.80
2019-02-21T01:10:18.381Z,14.63
2019-02-21T01:12:46.874Z,14.78
2019-02-21T01:15:15.462Z,15.53
2019-02-21T01:17:44.568Z,15.20
2019-02-21T01:20:13.242Z,14.55
2019-02-21T01:22:41.667Z,14.90
2019-02-21T01:25:11.845Z,16.00
2019-02-21T01:27:40.513Z,15.00
2019-02-21T01:30:09.217Z,16.20
2019-02-21T01:32:38.362Z,15.40
2019-02-21T01:35:07.739Z,15.63
2019-02-21T01:37:35.943Z,16.00
2019-02-21T01:40:05.010Z,15.98
2019-02-21T01:42:33.476Z,16.07
2019-02-21T01:45:02.337Z,16.32
2019-02-21T01:47:30.685Z,16.33
2019-02-21T01:49:59.175Z,16.50
2019-02-21T01:52:27.704Z,16.20
2019-02-21T01:54:56.157Z,17.00
2019-02-21T01:57:24.754Z,17.00
2019-02-21T01:59:52.880Z,16.80
2019-02-21T02:02:21.319Z,16.80
2019-02-21T02:04:50.428Z,16.97
2019-02-21T02:07:18.548Z,17.30
2019-02-21T02:09:47.027Z,17.25
2019-02-21T02:12:17.010Z,17.00
2019-02-21T02:14:46.026Z,18.00
2019-02-21T02:17:14.444Z,17.20
2019-02-21T02:19:42.617Z,18.32
2019-02-21T02:22:11.201Z,17.50
2019-02-21T02:24:39.904Z,18.45
2019-02-21T02:27:08.035Z,17.62
2019-02-21T02:29:36.180Z,18.35
2019-02-21T02:32:04.673Z,17.47
2019-02-21T02:34:33.498Z,18.20
2019-02-21T02:37:01.877Z,18.12
2019-02-21T02:39:31.955Z,17.62
2019-02-21T02:42:00.043Z,18.75
2019-02-21T02:44:28.475Z,18.52
2019-02-21T02:46:56.967Z,18.70
2019-02-21T02:49:25.588Z,19.12
2019-02-21T02:51:53.659Z,17.93
2019-02-21T02:54:21.753Z,18.35
2019-02-21T02:56:50.247Z,18.82
2019-02-21T02:59:18.294Z,19.20
2019-02-21T03:01:46.608Z,18.48
2019-02-21T03:04:15.872Z,18.75
2019-02-21T03:06:44.789Z,18.20
2019-02-21T03:09:13.622Z,18.60
2019-02-21T03:11:43.791Z,18.60
2019-02-21T03:14:12.308Z,18.05
2019-02-21T03:16:40.426Z,18.20
2019-02-21T03:19:08.435Z,18.85
2019-02-21T03:21:37.129Z,18.37
2019-02-21T03:24:05.352Z,18.33
2019-02-21T03:26:34.058Z,19.77
2019-02-21T03:29:02.234Z,18.95
2019-02-21T03:31:30.381Z,19.42
2019-02-21T03:33:58.863Z,19.27
2019-02-21T03:36:27.315Z,19.40
2019-02-21T03:38:55.646Z,19.27
2019-02-21T03:41:23.846Z,18.90
2019-02-21T03:43:52.001Z,20.00
2019-02-21T03:46:20.627Z,18.50
2019-02-21T03:48:49.169Z,19.23
2019-02-21T03:51:18.004Z,18.80
2019-02-21T03:53:48.301Z,18.70
2019-02-21T03:56:17.187Z,19.90
2019-02-21T03:58:45.592Z,20.20
2019-02-21T04:01:14.221Z,21.20
2019-02-21T04:03:42.551Z,19.87
2019-02-21T04:06:10.623Z,21.05
2019-02-21T04:08:39.527Z,20.23
2019-02-21T04:11:08.130Z,20.52
2019-02-21T04:13:36.708Z,20.90
2019-02-21T04:16:04.890Z,20.70
2019-02-21T04:18:33.477Z,21.07
2019-02-21T04:21:01.703Z,20.53
2019-02-21T04:23:30.100Z,21.30
2019-02-21T04:25:58.521Z,21.70
2019-02-21T04:28:26.696Z,21.23
2019-02-21T04:30:54.860Z,22.10
2019-02-21T04:33:23.190Z,21.30
2019-02-21T04:35:51.755Z,20.82
2019-02-21T04:38:20.210Z,21.68
2019-02-21T04:40:48.379Z,22.70
2019-02-21T04:43:16.500Z,21.42
2019-02-21T04:45:45.126Z,22.65
2019-02-21T04:48:13.244Z,23.10
2019-02-21T04:50:41.768Z,23.27
2019-02-21T04:53:10.290Z,22.62
2019-02-21T04:55:38.872Z,23.05
2019-02-21T04:58:06.995Z,24.37
2019-02-21T05:00:35.072Z,24.55
2019-02-21T05:03:03.643Z,24.02
2019-02-21T05:05:31.789Z,25.27
2019-02-21T05:08:00.607Z,25.43
2019-02-21T05:10:29.451Z,24.98
2019-02-21T05:12:58.198Z,24.67
2019-02-21T05:15:26.965Z,24.10
2019-02-21T05:17:55.619Z,25.85
2019-02-21T05:20:23.793Z,26.27
2019-02-21T05:22:51.900Z,25.40
2019-02-21T05:25:20.403Z,24.15
2019-02-21T05:27:53.670Z,25.30
2019-02-21T05:30:24.009Z,26.07
2019-02-21T05:33:04.082Z,25.40
2019-02-21T05:36:03.952Z,25.97
2019-02-21T05:38:48.108Z,26.00
2019-02-21T05:41:28.033Z,25.70
2019-02-21T05:44:04.723Z,26.23
2019-02-21T05:47:02.659Z,26.45
2019-02-21T05:49:42.996Z,27.98
2019-02-21T05:52:28.949Z,26.70
2019-02-21T05:55:16.061Z,27.58
2019-02-21T05:58:00.724Z,28.03
2019-02-21T06:00:57.345Z,26.90
2019-02-21T06:03:43.409Z,27.22
2019-02-21T06:06:27.364Z,27.87
2019-02-21T06:09:20.929Z,27.13
2019-02-21T06:12:05.073Z,29.12
2019-02-21T06:14:51.207Z,27.37
2019-02-21T06:17:38.241Z,27.17
2019-02-21T06:20:33.656Z,26.90
2019-02-21T06:23:25.087Z,27.35
2019-02-21T06:26:04.047Z,27.77
2019-02-21T06:28:54.587Z,26.90
2019-02-21T06:31:23.538Z,27.62
2019-02-21T06:33:52.236Z,27.27
2019-02-21T06:36:20.356Z,29.40
2019-02-21T06:38:49.199Z,44.63
2019-02-21T06:41:17.874Z,31.02
2019-02-21T06:43:46.496Z,27.45
2019-02-21T06:46:14.650Z,26.15
2019-02-21T06:48:44.649Z,26.10
2019-02-21T06:51:13.546Z,27.40
2019-02-21T06:53:42.638Z,27.07
2019-02-21T06:56:10.833Z,27.30
2019-02-21T06:58:41.981Z,25.97
2019-02-21T07:01:09.595Z,26.75
2019-02-21T07:03:37.852Z,27.32
2019-02-21T07:06:06.883Z,27.00
2019-02-21T07:08:35.672Z,25.77
2019-02-21T07:11:06.489Z,26.00
2019-02-21T07:13:34.285Z,25.27
2019-02-21T07:16:02.493Z,24.63
2019-02-21T07:18:30.669Z,26.50
2019-02-21T07:21:00.466Z,26.75
2019-02-21T07:23:35.790Z,26.30
2019-02-21T07:26:11.072Z,23.73
2019-02-21T07:28:41.677Z,24.43
2019-02-21T07:31:10.143Z,24.27
2019-02-21T07:33:38.739Z,25.60
2019-02-21T07:36:06.939Z,23.60
2019-02-21T07:38:35.126Z,23.12
2019-02-21T07:41:03.671Z,22.90
2019-02-21T07:43:32.550Z,23.23
2019-02-21T07:46:01.127Z,23.10
2019-02-21T07:48:29.323Z,22.70
2019-02-21T07:50:57.935Z,22.00
2019-02-21T07:53:26.122Z,22.87
2019-02-21T07:55:55.843Z,23.10
2019-02-21T07:58:24.474Z,21.93
2019-02-21T08:00:54.140Z,21.35
2019-02-21T08:03:30.267Z,22.40
2019-02-21T08:05:53.698Z,22.27
2019-02-21T08:08:22.380Z,22.17
2019-02-21T08:10:51.298Z,21.45
2019-02-21T08:13:19.821Z,22.90
2019-02-21T08:15:48.200Z,21.55
2019-02-21T08:18:16.302Z,21.05
2019-02-21T08:20:44.355Z,21.20
2019-02-21T08:23:12.860Z,20.40
2019-02-21T08:25:40.916Z,20.17
2019-02-21T08:28:09.001Z,20.70
2019-02-21T08:30:37.060Z,20.20
2019-02-21T08:33:22.450Z,20.37
2019-02-21T08:35:50.553Z,20.17
2019-02-21T08:38:19.218Z,19.65
2019-02-21T08:40:47.300Z,19.40
2019-02-21T08:43:15.396Z,19.60
2019-02-21T08:45:43.736Z,19.82
2019-02-21T08:48:13.503Z,18.75
2019-02-21T08:50:41.469Z,20.00
2019-02-21T08:53:10.333Z,18.90
2019-02-21T08:55:40.472Z,19.15
2019-02-21T08:58:09.116Z,19.05
2019-02-21T09:00:37.916Z,19.25
2019-02-21T09:03:06.595Z,18.82
2019-02-21T09:05:35.278Z,20.10
2019-02-21T09:08:03.356Z,18.40
2019-02-21T09:10:31.724Z,18.95
2019-02-21T09:13:00.104Z,19.00
2019-02-21T09:15:28.497Z,18.82
2019-02-21T09:17:56.589Z,18.75
2019-02-21T09:20:25.262Z,17.77
2019-02-21T09:22:53.312Z,17.40
2019-02-21T09:25:21.360Z,17.25
2019-02-21T09:27:49.679Z,18.25
2019-02-21T09:30:18.276Z,17.87
2019-02-21T09:32:46.636Z,17.92
2019-02-21T09:35:15.323Z,18.17
2019-02-21T09:37:43.371Z,18.10
2019-02-21T09:40:12.358Z,17.75
2019-02-21T09:42:40.759Z,17.10
2019-02-21T09:45:14.831Z,17.65
2019-02-21T09:47:43.218Z,18.20
2019-02-21T09:50:11.482Z,17.92
2019-02-21T09:52:39.811Z,19.12
2019-02-21T09:55:09.318Z,18.50
2019-02-21T09:57:37.343Z,18.30
2019-02-21T10:00:06.316Z,18.70
2019-02-21T10:02:34.704Z,18.12
2019-02-21T10:05:05.743Z,18.85
2019-02-21T10:07:37.066Z,17.90
2019-02-21T10:10:05.225Z,17.90
2019-02-21T10:12:33.659Z,17.63
2019-02-21T10:15:01.748Z,17.90
2019-02-21T10:17:30.451Z,17.87
2019-02-21T10:19:58.546Z,17.13
2019-02-21T10:22:26.751Z,17.20
2019-02-21T10:24:56.960Z,17.80
2019-02-21T10:27:25.445Z,16.90
2019-02-21T10:29:54.321Z,16.90
2019-02-21T10:32:22.999Z,17.23
2019-02-21T10:34:53.026Z,16.77
2019-02-21T10:37:20.767Z,16.70
2019-02-21T10:39:53.261Z,16.48
2019-02-21T10:42:21.288Z,16.30
2019-02-21T10:44:50.158Z,16.05
2019-02-21T10:47:18.920Z,17.17
2019-02-21T10:49:47.281Z,16.82
2019-02-21T10:52:15.663Z,17.00
2019-02-21T10:54:44.343Z,15.68
2019-02-21T10:57:13.001Z,16.52
2019-02-21T10:59:46.770Z,16.90
2019-02-21T11:02:11.377Z,16.00
2019-02-21T11:04:42.121Z,15.80
2019-02-21T11:07:09.563Z,15.50
2019-02-21T11:09:37.737Z,16.07
2019-02-21T11:12:06.610Z,16.25
2019-02-21T11:14:35.068Z,16.30
2019-02-21T11:17:03.813Z,18.07
2019-02-21T11:19:32.384Z,17.07
2019-02-21T11:22:00.474Z,16.87
2019-02-21T11:24:29.092Z,16.40
2019-02-21T11:26:57.692Z,16.90
2019-02-21T11:29:25.799Z,17.10
2019-02-21T11:31:54.212Z,17.17
2019-02-21T11:34:22.653Z,17.32
2019-02-21T11:36:51.150Z,17.45
2019-02-21T11:39:19.771Z,16.77
2019-02-21T11:41:47.998Z,16.40
2019-02-21T11:44:16.692Z,16.10
2019-02-21T11:46:45.119Z,16.20
2019-02-21T11:49:13.610Z,15.55
2019-02-21T11:51:42.492Z,15.80
2019-02-21T11:54:10.908Z,16.50
2019-02-21T11:56:39.055Z,16.90
2019-02-21T11:59:07.500Z,16.07
2019-02-21T12:01:36.156Z,27.20
2019-02-21T12:04:04.221Z,21.97
2019-02-21T12:06:32.933Z,27.48
2019-02-21T12:09:01.352Z,27.02
2019-02-21T12:11:30.366Z,22.87
2019-02-21T12:13:58.451Z,18.00
2019-02-21T12:16:26.924Z,17.55
2019-02-21T12:18:54.952Z,18.50
2019-02-21T12:21:23.253Z,18.17
2019-02-21T12:23:51.577Z,18.70
2019-02-21T12:26:19.637Z,18.30
2019-02-21T12:28:47.695Z,19.52
2019-02-21T12:31:16.257Z,18.15
2019-02-21T12:33:44.641Z,19.27
2019-02-21T12:36:13.519Z,20.08
2019-02-21T12:38:41.910Z,20.68
2019-02-21T12:41:10.362Z,21.30
2019-02-21T12:43:38.634Z,19.55
2019-02-21T12:46:07.048Z,20.50
2019-02-21T12:48:35.768Z,19.98
2019-02-21T12:51:03.833Z,19.83
2019-02-21T12:53:32.596Z,19.37
2019-02-21T12:56:00.973Z,18.82
2019-02-21T12:58:29.388Z,18.37
2019-02-21T13:00:57.420Z,18.55
2019-02-21T13:03:26.112Z,19.70
2019-02-21T13:05:54.561Z,19.75
2019-02-21T13:08:22.973Z,19.90
2019-02-21T13:10:51.693Z,19.85
2019-02-21T13:13:20.055Z,20.40
2019-02-21T13:15:48.421Z,21.90
2019-02-21T13:18:16.791Z,20.97
2019-02-21T13:20:45.172Z,22.20
2019-02-21T13:23:13.525Z,22.02
2019-02-21T13:25:41.869Z,22.60
2019-02-21T13:28:09.988Z,22.37
2019-02-21T13:30:38.326Z,22.62
2019-02-21T13:33:06.652Z,23.30
2019-02-21T13:35:35.353Z,21.65
2019-02-21T13:38:03.433Z,22.15
2019-02-21T13:40:31.852Z,21.42
2019-02-21T13:42:59.904Z,23.20
2019-02-21T13:45:27.939Z,22.67
2019-02-21T13:47:56.633Z,22.73
2019-02-21T13:50:25.093Z,23.18
2019-02-21T13:52:53.359Z,21.93
2019-02-21T13:55:21.774Z,21.95
2019-02-21T13:57:50.156Z,21.85
2019-02-21T14:00:18.701Z,23.20
2019-02-21T14:02:47.417Z,22.55
2019-02-21T14:05:15.445Z,21.68
2019-02-21T14:07:43.769Z,22.35
2019-02-21T14:10:12.155Z,22.05
2019-02-21T14:12:40.219Z,21.48
2019-02-21T14:15:09.733Z,21.52
2019-02-21T14:17:37.787Z,20.90
2019-02-21T14:20:06.213Z,21.13
2019-02-21T14:22:34.957Z,21.35
2019-02-21T14:25:04.877Z,21.10
2019-02-21T14:27:33.263Z,21.42
2019-02-21T14:30:01.645Z,20.97
2019-02-21T14:32:30.132Z,21.45
2019-02-21T14:34:58.195Z,21.77
2019-02-21T14:37:26.335Z,22.00
2019-02-21T14:39:55.018Z,22.27
2019-02-21T14:42:23.100Z,22.20
2019-02-21T14:44:51.469Z,22.00
2019-02-21T14:47:19.884Z,22.60
2019-02-21T14:49:51.027Z,22.60
2019-02-21T14:52:19.417Z,23.30
2019-02-21T14:54:47.514Z,23.35
2019-02-21T14:57:15.617Z,24.90
2019-02-21T14:59:44.800Z,25.65
2019-02-21T15:02:13.121Z,24.53
2019-02-21T15:04:41.171Z,36.30
2019-02-21T15:07:09.639Z,32.73
2019-02-21T15:09:37.655Z,27.52
2019-02-21T15:12:05.731Z,27.13
2019-02-21T15:14:34.084Z,28.05
2019-02-21T15:17:03.888Z,28.75
2019-02-21T15:19:32.161Z,29.35
2019-02-21T15:22:00.460Z,28.00
2019-02-21T15:24:29.035Z,28.70
2019-02-21T15:27:07.865Z,30.82
2019-02-21T15:29:27.350Z,30.27
2019-02-21T15:31:55.741Z,32.60
2019-02-21T15:34:24.145Z,33.45
2019-02-21T15:36:52.471Z,33.95
2019-02-21T15:39:20.564Z,34.10
2019-02-21T15:41:48.621Z,34.78
2019-02-21T15:44:17.429Z,35.60
2019-02-21T15:46:45.905Z,35.00
2019-02-21T15:49:14.218Z,35.90
2019-02-21T15:51:42.876Z,39.50
2019-02-21T15:54:12.575Z,35.95
2019-02-21T15:56:40.737Z,36.90
2019-02-21T15:59:09.102Z,39.40
2019-02-21T16:01:46.996Z,38.40
2019-02-21T16:04:07.330Z,38.05
2019-02-21T16:06:37.918Z,37.30
2019-02-21T16:09:15.862Z,38.35
2019-02-21T16:11:37.172Z,39.80
2019-02-21T16:14:05.216Z,39.60
2019-02-21T16:16:33.308Z,39.10
2019-02-21T16:19:01.387Z,39.70
2019-02-21T16:21:29.707Z,40.80
2019-02-21T16:23:57.758Z,41.50
2019-02-21T16:26:25.827Z,41.10
2019-02-21T16:28:54.288Z,40.58
2019-02-21T16:31:23.285Z,40.30
2019-02-21T16:33:51.339Z,38.08
2019-02-21T16:36:20.080Z,35.43
2019-02-21T16:38:48.079Z,33.05
2019-02-21T16:41:16.216Z,33.55
2019-02-21T16:43:44.599Z,33.35
2019-02-21T16:46:13.648Z,30.48
2019-02-21T16:48:42.045Z,30.92
2019-02-21T16:51:10.117Z,32.23
2019-02-21T16:53:38.543Z,32.43
2019-02-21T16:56:07.286Z,30.60
2019-02-21T16:58:35.323Z,30.12
2019-02-21T17:01:03.388Z,32.63
2019-02-21T17:03:31.811Z,30.90
2019-02-21T17:06:00.234Z,28.65
2019-02-21T17:08:28.677Z,29.42
2019-02-21T17:10:57.175Z,28.60
2019-02-21T17:13:25.240Z,27.95
2019-02-21T17:15:53.284Z,29.05
2019-02-21T17:18:21.365Z,27.10
2019-02-21T17:20:49.771Z,26.33
2019-02-21T17:23:22.742Z,26.30
2019-02-21T17:25:47.532Z,26.00
2019-02-21T17:28:15.640Z,26.05
2019-02-21T17:30:43.963Z,26.93
2019-02-21T17:33:12.418Z,25.30
2019-02-21T17:35:40.470Z,24.90
2019-02-21T17:38:08.555Z,24.27
2019-02-21T17:40:37.033Z,24.45
2019-02-21T17:43:05.952Z,23.05
2019-02-21T17:45:34.362Z,22.75
2019-02-21T17:48:02.461Z,22.47
2019-02-21T17:50:30.510Z,20.63
2019-02-21T17:52:58.717Z,21.57
2019-02-21T17:55:26.906Z,20.95
2019-02-21T17:57:55.650Z,20.57
2019-02-21T18:00:32.630Z,17.70
2019-02-21T18:03:01.140Z,17.27
2019-02-21T18:05:29.144Z,17.37
2019-02-21T18:07:57.408Z,17.07
2019-02-21T18:10:27.026Z,16.87
2019-02-21T18:12:55.545Z,16.35
2019-02-21T18:15:23.980Z,16.20
2019-02-21T18:17:52.773Z,14.83
2019-02-21T18:20:21.330Z,15.23
2019-02-21T18:22:49.510Z,14.50
2019-02-21T18:25:19.844Z,13.60
2019-02-21T18:27:48.398Z,14.10
2019-02-21T18:30:16.865Z,12.82
2019-02-21T18:32:45.356Z,12.50
2019-02-21T18:35:13.676Z,12.10
2019-02-21T18:37:47.463Z,11.30
2019-02-21T18:40:17.288Z,17.20
2019-02-21T18:42:44.284Z,22.35
2019-02-21T18:45:13.066Z,14.10
2019-02-21T18:47:41.400Z,26.15
2019-02-21T18:50:09.988Z,12.85
2019-02-21T18:52:38.256Z,11.90
2019-02-21T18:55:07.720Z,12.70
2019-02-21T18:57:36.714Z,13.08
2019-02-21T19:00:07.008Z,13.90
2019-02-21T19:02:36.336Z,13.25
2019-02-21T19:05:04.886Z,13.60
2019-02-21T19:07:33.737Z,14.23
2019-02-21T19:10:02.485Z,14.78
2019-02-21T19:12:30.613Z,14.43
2019-02-21T19:14:59.053Z,14.70
2019-02-21T19:17:27.568Z,15.95
2019-02-21T19:19:56.280Z,15.85
2019-02-21T19:22:24.699Z,16.10
2019-02-21T19:24:53.599Z,15.18
2019-02-21T19:27:22.065Z,15.83
2019-02-21T19:29:50.546Z,15.23
2019-02-21T19:32:18.668Z,15.10
2019-02-21T19:34:47.664Z,15.72
2019-02-21T19:37:15.793Z,15.78
2019-02-21T19:39:45.856Z,15.85
2019-02-21T19:42:14.399Z,15.80
2019-02-21T19:44:43.208Z,16.10
2019-02-21T19:47:11.305Z,15.90
2019-02-21T19:49:40.154Z,16.07
2019-02-21T19:52:08.295Z,16.82
2019-02-21T19:54:36.465Z,15.23
2019-02-21T19:57:05.224Z,15.95
2019-02-21T19:59:35.182Z,16.77
2019-02-21T20:02:03.800Z,15.53
2019-02-21T20:04:32.911Z,17.40
2019-02-21T20:07:01.785Z,17.50
2019-02-21T20:09:30.070Z,17.27
2019-02-21T20:11:58.391Z,16.15
2019-02-21T20:14:26.967Z,17.25
2019-02-21T20:16:55.806Z,17.60
2019-02-21T20:19:24.488Z,18.50
2019-02-21T20:21:54.525Z,19.98
2019-02-21T20:24:23.744Z,17.37
2019-02-21T20:26:52.441Z,18.60
2019-02-21T20:29:20.513Z,18.70
2019-02-21T20:31:48.587Z,18.70
2019-02-21T20:34:17.013Z,19.50
2019-02-21T20:36:50.962Z,19.80
2019-02-21T20:39:14.800Z,19.85
2019-02-21T20:41:43.031Z,20.10
2019-02-21T20:44:11.112Z,19.50
2019-02-21T20:46:39.344Z,20.88
2019-02-21T20:49:08.237Z,20.30
2019-02-21T20:51:36.815Z,21.25
2019-02-21T20:54:05.151Z,21.90
2019-02-21T20:56:33.663Z,23.70
2019-02-21T20:59:02.539Z,22.60
2019-02-21T21:01:30.720Z,22.80
2019-02-21T21:03:59.332Z,23.80
2019-02-21T21:06:29.536Z,23.57
2019-02-21T21:08:57.576Z,24.90
2019-02-21T21:11:26.316Z,25.48
2019-02-21T21:13:54.426Z,24.47
2019-02-21T21:16:23.041Z,24.90
2019-02-21T21:18:52.044Z,24.70
2019-02-21T21:21:20.084Z,24.80
2019-02-21T21:23:48.512Z,27.27
2019-02-21T21:26:16.549Z,26.63
2019-02-21T21:28:44.691Z,25.25
2019-02-21T21:31:15.238Z,28.23
2019-02-21T21:33:43.352Z,26.25
2019-02-21T21:36:12.520Z,29.72
2019-02-21T21:38:40.701Z,28.55
2019-02-21T21:41:08.832Z,28.70
2019-02-21T21:43:37.271Z,29.07
2019-02-21T21:46:05.489Z,29.52
2019-02-21T21:48:34.963Z,30.45
2019-02-21T21:51:05.282Z,28.57
2019-02-21T21:53:35.214Z,29.63
2019-02-21T21:56:03.427Z,28.77
2019-02-21T21:58:33.344Z,27.85
2019-02-21T22:01:01.493Z,26.33
2019-02-21T22:03:29.919Z,27.63
2019-02-21T22:05:58.425Z,26.82
2019-02-21T22:08:26.637Z,26.15
2019-02-21T22:10:55.853Z,25.40
2019-02-21T22:13:24.276Z,25.70
2019-02-21T22:15:52.652Z,26.07
2019-02-21T22:18:21.138Z,23.65
2019-02-21T22:20:49.299Z,24.20
2019-02-21T22:23:17.676Z,23.55
2019-02-21T22:25:46.155Z,23.05
2019-02-21T22:28:14.334Z,23.27
2019-02-21T22:30:42.413Z,24.63
2019-02-21T22:33:10.908Z,23.60
2019-02-21T22:35:39.606Z,23.20
2019-02-21T22:38:07.719Z,22.93
2019-02-21T22:40:36.084Z,23.42
2019-02-21T22:43:04.744Z,23.95
2019-02-21T22:45:33.780Z,23.45
2019-02-21T22:48:02.141Z,24.02
2019-02-21T22:50:30.791Z,24.37
2019-02-21T22:52:59.628Z,22.25
2019-02-21T22:55:28.889Z,22.40
2019-02-21T22:57:57.605Z,22.73
2019-02-21T23:00:59.795Z,22.37
2019-02-21T23:03:29.523Z,22.40
2019-02-21T23:06:16.679Z,22.30
2019-02-21T23:08:46.493Z,22.90
2019-02-21T23:11:15.002Z,23.30
2019-02-21T23:13:43.446Z,23.05
2019-02-21T23:16:12.561Z,22.20
2019-02-21T23:18:43.045Z,22.15
2019-02-21T23:21:11.327Z,23.70
2019-02-21T23:23:39.823Z,22.40
2019-02-21T23:26:08.775Z,21.37
2019-02-21T23:28:37.605Z,21.80
2019-02-21T23:31:06.204Z,23.20
2019-02-21T23:33:37.461Z,23.18
2019-02-21T23:36:07.233Z,21.65
2019-02-21T23:38:35.741Z,22.52
2019-02-21T23:41:04.425Z,22.63
2019-02-21T23:43:32.866Z,22.05
2019-02-21T23:46:01.511Z,23.20
2019-02-21T23:48:29.715Z,21.80
2019-02-21T23:50:58.604Z,21.48
2019-02-21T23:53:27.927Z,21.37
2019-02-21T23:55:58.243Z,22.55
2019-02-21T23:58:26.416Z,22.60
